Time;durP1;ratioP1;P1;durP2;ratioP2;P2;SDS_P1;SDS_P2;PMS_P1;PMS_P2;Temp;Humidity;BMP_temperature;BMP_pressure;BME280_temperature;BME280_humidity;BME280_pressure;Samples;Min_cycle;Max_cycle;Signal;HPM_P1;HPM_P2
2024/02/12 00:00:44;;;;;;;80.25;41.35;;;7.90;99.90;;;;;;5048901;28;20135;-78
2024/02/12 00:03:10;;;;;;;75.68;41.40;;;7.90;99.90;;;;;;5065366;28;20130;-78
2024/02/12 00:05:36;;;;;;;80.72;40.88;;;7.90;99.90;;;;;;5062176;28;20040;-78
2024/02/12 00:08:10;;;;;;;76.72;40.00;;;7.90;99.90;;;;;;5046973;28;20044;-77
2024/02/12 00:10:39;;;;;;;79.50;41.22;;;7.90;99.90;;;;;;5042316;28;20048;-78
2024/02/12 00:13:05;;;;;;;72.07;40.17;;;7.90;99.90;;;;;;5046446;28;20378;-78
2024/02/12 00:15:34;;;;;;;87.20;42.78;;;7.90;99.90;;;;;;5041548;28;20048;-78
2024/02/12 00:18:00;;;;;;;85.22;43.40;;;7.90;99.90;;;;;;5042110;28;20048;-79
2024/02/12 00:20:29;;;;;;;91.30;43.38;;;7.90;99.90;;;;;;5055449;28;20043;-79
2024/02/12 00:22:55;;;;;;;83.82;41.65;;;7.90;99.90;;;;;;5044998;28;20036;-79
2024/02/12 00:25:21;;;;;;;86.07;41.22;;;7.90;99.90;;;;;;5031648;28;20108;-79
2024/02/12 00:27:48;;;;;;;74.13;40.55;;;8.00;99.90;;;;;;5049689;28;20497;-79
2024/02/12 00:30:15;;;;;;;80.78;39.92;;;8.00;99.90;;;;;;5062266;28;20044;-79
2024/02/12 00:32:44;;;;;;;92.57;43.35;;;7.90;99.90;;;;;;5056935;28;20039;-78
2024/02/12 00:35:11;;;;;;;82.22;41.13;;;8.00;99.90;;;;;;5047816;28;20044;-78
2024/02/12 00:37:37;;;;;;;78.80;39.72;;;7.90;99.90;;;;;;5053873;28;20048;-79
2024/02/12 00:40:09;;;;;;;90.28;42.22;;;7.90;99.90;;;;;;5053035;28;20062;-79
2024/02/12 00:42:38;;;;;;;83.90;39.10;;;7.90;99.90;;;;;;5039947;28;20063;-78
2024/02/12 00:45:11;;;;;;;83.68;39.78;;;7.90;99.90;;;;;;5054035;28;20037;-79
2024/02/12 00:47:39;;;;;;;87.75;39.47;;;7.90;99.90;;;;;;5054864;28;20047;-79
2024/02/12 00:50:06;;;;;;;95.30;40.45;;;7.80;99.90;;;;;;5059788;28;20459;-79
2024/02/12 00:52:37;;;;;;;81.20;38.63;;;7.70;99.90;;;;;;5056262;28;20040;-79
2024/02/12 00:55:07;;;;;;;75.65;37.50;;;7.70;99.90;;;;;;5049097;28;20382;-79
2024/02/12 00:57:36;;;;;;;87.85;38.60;;;7.60;99.90;;;;;;5055003;28;20493;-79
2024/02/12 01:00:04;;;;;;;82.68;38.72;;;7.60;99.90;;;;;;5060108;28;20064;-78
2024/02/12 01:02:30;;;;;;;95.20;41.42;;;7.50;99.90;;;;;;5038529;28;20052;-79
2024/02/12 01:04:58;;;;;;;79.03;38.03;;;7.50;99.90;;;;;;5047745;28;20056;-79
2024/02/12 01:07:25;;;;;;;72.95;37.80;;;7.50;99.90;;;;;;5054145;28;20127;-78
2024/02/12 01:09:51;;;;;;;76.75;38.55;;;7.50;99.90;;;;;;5055880;28;20044;-79
2024/02/12 01:12:17;;;;;;;95.75;40.95;;;7.50;99.90;;;;;;5054040;28;20102;-78
2024/02/12 01:14:43;;;;;;;68.97;38.00;;;7.50;99.90;;;;;;5051507;28;20730;-78
2024/02/12 01:17:10;;;;;;;89.43;39.10;;;7.50;99.90;;;;;;5039471;28;20063;-78
2024/02/12 01:19:36;;;;;;;87.40;40.38;;;7.50;99.90;;;;;;5048360;28;20078;-78
2024/02/12 01:22:04;;;;;;;101.78;40.75;;;7.50;99.90;;;;;;5048173;28;20068;-78
2024/02/12 01:24:30;;;;;;;80.55;37.90;;;7.60;99.90;;;;;;5043621;28;20052;-78
2024/02/12 01:26:56;;;;;;;78.00;39.65;;;7.60;99.90;;;;;;5050617;28;20048;-78
2024/02/12 01:29:24;;;;;;;76.40;38.33;;;7.60;99.90;;;;;;5052778;28;20406;-78
2024/02/12 01:31:53;;;;;;;89.03;39.00;;;7.60;99.90;;;;;;5050132;28;20037;-79
2024/02/12 01:34:19;;;;;;;61.60;33.13;;;7.60;99.90;;;;;;5061589;28;20504;-79
2024/02/12 01:36:45;;;;;;;91.45;40.22;;;7.60;99.90;;;;;;5072105;28;20131;-79
2024/02/12 01:39:11;;;;;;;73.63;36.97;;;7.60;99.90;;;;;;5059632;28;20104;-78
2024/02/12 01:41:42;;;;;;;71.90;36.72;;;7.60;99.90;;;;;;5050985;28;20047;-78
2024/02/12 01:44:08;;;;;;;74.63;36.97;;;7.60;99.90;;;;;;5041446;28;20045;-80
2024/02/12 01:46:34;;;;;;;76.55;35.28;;;7.60;99.90;;;;;;5049987;28;20055;-78
2024/02/12 01:49:01;;;;;;;67.72;34.70;;;7.60;99.90;;;;;;5056431;28;20060;-79
2024/02/12 01:51:27;;;;;;;65.82;34.63;;;7.60;99.90;;;;;;5038932;28;20415;-79
2024/02/12 01:53:59;;;;;;;66.68;34.30;;;7.60;99.90;;;;;;5044117;28;20043;-78
2024/02/12 01:56:26;;;;;;;59.75;32.70;;;7.60;99.90;;;;;;5047259;28;20045;-78
2024/02/12 01:58:52;;;;;;;69.93;37.08;;;7.60;99.90;;;;;;5057486;28;20047;-79
2024/02/12 02:01:19;;;;;;;65.93;35.95;;;7.60;99.90;;;;;;5052570;28;20045;-77
2024/02/12 02:03:46;;;;;;;70.45;36.83;;;7.60;99.90;;;;;;5036580;28;20102;-77
2024/02/12 02:06:13;;;;;;;69.53;36.17;;;7.80;99.90;;;;;;5052104;28;20036;-77
2024/02/12 02:08:39;;;;;;;66.28;34.10;;;7.70;99.90;;;;;;5036246;28;20127;-77
2024/02/12 02:11:06;;;;;;;63.67;34.05;;;7.60;99.90;;;;;;5048153;28;20051;-78
2024/02/12 02:13:41;;;;;;;61.97;34.50;;;7.70;99.90;;;;;;5053245;28;20040;-79
2024/02/12 02:16:07;;;;;;;60.83;33.95;;;7.60;99.90;;;;;;5060786;28;20056;-78
2024/02/12 02:18:33;;;;;;;60.13;34.90;;;7.70;99.90;;;;;;5054157;28;20048;-79
2024/02/12 02:21:00;;;;;;;58.80;33.72;;;7.60;99.90;;;;;;5052639;28;20044;-78
2024/02/12 02:23:27;;;;;;;55.70;33.35;;;7.70;99.90;;;;;;5072768;28;20048;-77
2024/02/12 02:25:55;;;;;;;64.20;34.15;;;7.70;99.90;;;;;;5070059;28;20508;-78
2024/02/12 02:28:23;;;;;;;62.20;34.05;;;7.60;99.90;;;;;;5055340;28;20052;-78
2024/02/12 02:30:49;;;;;;;53.65;32.05;;;7.60;99.90;;;;;;5062178;28;20079;-78
2024/02/12 02:33:16;;;;;;;59.80;33.35;;;7.70;99.90;;;;;;5055090;28;20473;-79
2024/02/12 02:35:44;;;;;;;69.72;36.20;;;7.70;99.90;;;;;;5035282;28;20294;-77
2024/02/12 02:38:14;;;;;;;59.10;33.67;;;7.60;99.90;;;;;;5054856;28;20128;-78
2024/02/12 02:40:39;;;;;;;70.00;36.55;;;7.60;99.90;;;;;;5059648;28;20543;-78
2024/02/12 02:43:06;;;;;;;62.17;34.10;;;7.60;99.90;;;;;;5040315;28;20075;-78
2024/02/12 02:45:33;;;;;;;57.05;33.10;;;7.60;99.90;;;;;;5059326;28;20370;-78
2024/02/12 02:47:59;;;;;;;55.70;32.30;;;7.60;99.90;;;;;;5043702;28;20045;-78
2024/02/12 02:50:26;;;;;;;54.25;31.83;;;7.60;99.90;;;;;;5043966;28;20036;-78
2024/02/12 02:52:53;;;;;;;59.85;33.35;;;7.60;99.90;;;;;;5052814;28;20040;-78
2024/02/12 02:55:21;;;;;;;66.10;33.85;;;7.70;99.90;;;;;;5050311;28;20113;-78
2024/02/12 02:57:47;;;;;;;63.58;34.67;;;7.60;99.90;;;;;;5042901;28;20036;-78
2024/02/12 03:00:13;;;;;;;64.70;34.30;;;7.60;99.90;;;;;;5062933;28;20036;-77
2024/02/12 03:02:41;;;;;;;66.78;35.38;;;7.60;99.90;;;;;;5037941;28;20500;-77
2024/02/12 03:05:08;;;;;;;64.72;35.58;;;7.60;99.90;;;;;;5041501;28;20035;-77
2024/02/12 03:07:37;;;;;;;66.57;34.78;;;7.60;99.90;;;;;;5037273;28;20469;-77
2024/02/12 03:10:03;;;;;;;70.85;35.95;;;7.60;99.90;;;;;;5043044;28;20044;-77
2024/02/12 03:12:32;;;;;;;75.13;37.80;;;7.60;99.90;;;;;;5041080;28;20072;-77
2024/02/12 03:14:59;;;;;;;80.40;38.47;;;7.60;99.90;;;;;;5060036;28;20089;-77
2024/02/12 03:17:26;;;;;;;75.05;36.30;;;7.60;99.90;;;;;;5036003;28;20052;-80
2024/02/12 03:19:52;;;;;;;67.90;34.65;;;7.60;99.90;;;;;;5042662;28;20052;-78
2024/02/12 03:22:18;;;;;;;79.40;38.15;;;7.60;99.90;;;;;;5058809;28;20049;-77
2024/02/12 03:24:44;;;;;;;83.70;38.95;;;7.50;99.90;;;;;;5042499;28;20044;-78
2024/02/12 03:27:10;;;;;;;88.47;39.50;;;7.60;99.90;;;;;;5054274;28;20044;-77
2024/02/12 03:29:36;;;;;;;81.78;38.10;;;7.50;99.90;;;;;;5040780;28;20056;-78
2024/02/12 03:32:03;;;;;;;88.80;39.58;;;7.60;99.90;;;;;;5039342;28;20047;-78
2024/02/12 03:34:31;;;;;;;79.00;38.65;;;7.60;99.90;;;;;;5059714;28;20672;-77
2024/02/12 03:36:57;;;;;;;85.25;37.05;;;7.60;99.90;;;;;;5040178;28;20051;-78
2024/02/12 03:39:26;;;;;;;87.47;39.42;;;7.60;99.90;;;;;;5055469;28;20041;-77
2024/02/12 03:41:52;;;;;;;75.50;37.03;;;7.50;99.90;;;;;;5047682;28;20036;-77
2024/02/12 03:44:18;;;;;;;67.57;35.70;;;7.50;99.90;;;;;;5041869;28;20037;-77
2024/02/12 03:46:45;;;;;;;77.00;37.05;;;7.50;99.90;;;;;;5042445;28;20044;-78
2024/02/12 04:00:16;;;;;;;78.05;36.25;;;7.60;99.90;;;;;;5058654;28;20043;-78
2024/02/12 04:02:43;;;;;;;65.38;34.55;;;7.50;99.90;;;;;;5040757;28;20124;-78
2024/02/12 04:05:17;;;;;;;68.95;34.15;;;7.50;99.90;;;;;;5044524;28;20059;-78
2024/02/12 04:07:43;;;;;;;77.32;36.90;;;7.50;99.90;;;;;;5058279;28;20032;-78
2024/02/12 04:10:12;;;;;;;66.65;35.45;;;7.50;99.90;;;;;;5061231;28;20035;-78
2024/02/12 04:12:43;;;;;;;73.15;35.00;;;7.50;99.90;;;;;;5037857;28;20083;-78
2024/02/12 04:15:10;;;;;;;;;;;7.50;99.90;;;;;;5042311;28;20039;-78
2024/02/12 04:17:37;;;;;;;68.90;33.13;;;7.50;99.90;;;;;;5056168;28;19934;-78
2024/02/12 04:20:05;;;;;;;66.50;33.58;;;7.40;99.90;;;;;;5037264;28;20497;-78
2024/02/12 04:22:34;;;;;;;73.93;35.63;;;7.50;99.90;;;;;;5055621;28;20048;-78
2024/02/12 04:25:01;;;;;;;63.55;34.33;;;7.50;99.90;;;;;;5035880;28;20052;-78
2024/02/12 04:27:28;;;;;;;68.35;32.67;;;7.40;99.90;;;;;;5040245;28;20048;-77
2024/02/12 04:29:56;;;;;;;71.53;34.05;;;7.50;99.90;;;;;;5033570;28;20047;-78
2024/02/12 04:32:23;;;;;;;70.63;33.13;;;7.50;99.90;;;;;;5062353;28;20082;-79
2024/02/12 04:34:48;;;;;;;76.57;33.47;;;7.50;99.90;;;;;;5066441;28;20105;-79
2024/02/12 04:37:14;;;;;;;73.50;33.63;;;7.50;99.90;;;;;;5046812;28;20512;-79
2024/02/12 04:39:40;;;;;;;70.95;33.35;;;7.50;99.90;;;;;;5039313;28;20055;-79
2024/02/12 04:42:06;;;;;;;68.75;32.58;;;7.50;99.90;;;;;;5039709;28;20032;-79
2024/02/12 04:44:32;;;;;;;60.30;32.55;;;7.50;99.90;;;;;;5054734;28;20048;-78
2024/02/12 04:47:01;;;;;;;61.22;31.10;;;7.50;99.90;;;;;;5055499;28;20492;-78
2024/02/12 04:49:27;;;;;;;55.58;32.30;;;7.60;99.90;;;;;;5043295;28;20079;-79
2024/02/12 04:51:54;;;;;;;59.25;32.28;;;7.50;99.90;;;;;;5039836;28;20037;-79
2024/02/12 04:54:23;;;;;;;46.78;28.98;;;7.50;99.90;;;;;;5038753;28;20684;-79
2024/02/12 04:56:49;;;;;;;53.42;30.15;;;7.50;99.90;;;;;;5036408;28;20042;-79
2024/02/12 04:59:18;;;;;;;61.97;31.80;;;7.40;99.90;;;;;;5036827;28;20732;-79
2024/02/12 05:01:45;;;;;;;63.50;32.05;;;7.40;99.90;;;;;;5053514;28;20044;-79
2024/02/12 05:04:11;;;;;;;56.50;31.42;;;7.40;99.90;;;;;;5061703;28;20040;-79
2024/02/12 05:06:36;;;;;;;55.42;30.77;;;7.40;99.90;;;;;;5043531;28;20387;-79
2024/02/12 05:09:09;;;;;;;69.03;32.83;;;7.40;99.90;;;;;;5056507;28;20572;-79
2024/02/12 05:11:35;;;;;;;54.38;30.45;;;7.40;99.90;;;;;;5064379;28;20125;-80
2024/02/12 05:14:00;;;;;;;59.35;31.00;;;7.40;99.90;;;;;;5057123;28;20040;-79
2024/02/12 05:16:32;;;;;;;68.95;32.55;;;7.30;99.90;;;;;;5057996;28;20048;-79
2024/02/12 05:24:34;;;;;;;74.85;34.22;;;7.40;99.90;;;;;;5063186;28;20056;-79
2024/02/12 05:27:01;;;;;;;74.75;35.58;;;7.30;99.90;;;;;;5059487;28;20052;-79
2024/02/12 05:29:27;;;;;;;68.47;33.17;;;7.30;99.90;;;;;;5056110;28;20060;-79
2024/02/12 05:31:54;;;;;;;71.65;35.70;;;7.30;99.90;;;;;;5046034;28;20044;-79
2024/02/12 05:34:21;;;;;;;67.57;35.17;;;7.30;99.90;;;;;;5045420;28;20040;-79
2024/02/12 05:36:51;;;;;;;73.10;36.50;;;7.30;99.90;;;;;;5045551;28;20508;-79
2024/02/12 05:39:19;;;;;;;;;;;7.30;99.90;;;;;;5062399;28;20595;-79
2024/02/12 05:41:46;;;;;;;87.35;37.58;;;7.20;99.90;;;;;;5065514;28;20042;-79
2024/02/12 05:44:12;;;;;;;84.20;38.15;;;7.20;99.90;;;;;;5059674;28;20043;-79
2024/02/12 05:46:39;;;;;;;78.35;36.40;;;7.10;99.90;;;;;;5039580;28;20041;-79
2024/02/12 05:49:09;;;;;;;89.80;38.00;;;7.10;99.90;;;;;;5043312;28;20055;-79
2024/02/12 05:51:37;;;;;;;58.03;34.15;;;7.10;99.90;;;;;;5067459;28;20501;-79
2024/02/12 05:54:02;;;;;;;77.43;36.53;;;7.10;99.90;;;;;;5047725;28;20044;-79
2024/02/12 05:56:30;;;;;;;55.35;33.63;;;7.10;99.90;;;;;;5047191;28;20048;-79
2024/02/12 05:58:56;;;;;;;55.75;33.60;;;7.00;99.90;;;;;;5060597;28;20041;-79
2024/02/12 06:01:23;;;;;;;65.82;36.08;;;7.00;99.90;;;;;;5060134;28;20519;-79
2024/02/12 06:03:49;;;;;;;60.70;35.90;;;6.90;99.90;;;;;;5042207;28;20044;-79
2024/02/12 06:06:16;;;;;;;99.38;41.22;;;7.00;99.90;;;;;;5052630;28;20043;-78
2024/02/12 06:08:42;;;;;;;59.80;33.15;;;6.90;99.90;;;;;;5064449;28;20615;-78
2024/02/12 06:11:09;;;;;;;65.10;36.72;;;6.90;99.90;;;;;;5067106;28;20040;-78
2024/02/12 06:13:34;;;;;;;76.45;39.45;;;6.90;99.90;;;;;;5052239;28;20609;-77
2024/02/12 06:16:00;;;;;;;72.80;39.30;;;6.90;99.90;;;;;;5050850;28;20079;-78
2024/02/12 06:18:27;;;;;;;57.78;33.30;;;6.90;99.90;;;;;;5041667;28;20050;-78
2024/02/12 06:20:53;;;;;;;67.97;36.05;;;6.90;99.90;;;;;;5049894;28;20506;-78
2024/02/12 06:23:19;;;;;;;75.30;38.42;;;6.90;99.90;;;;;;5045407;28;20048;-78
2024/02/12 06:25:46;;;;;;;67.70;36.90;;;6.90;99.90;;;;;;5049469;28;20147;-78
2024/02/12 06:28:11;;;;;;;71.53;39.95;;;6.90;99.90;;;;;;5055323;28;20496;-84
2024/02/12 06:30:37;;;;;;;92.63;43.22;;;6.90;99.90;;;;;;5040747;28;20070;-78
2024/02/12 06:33:04;;;;;;;104.45;42.67;;;7.00;99.90;;;;;;5058009;28;20452;-78
2024/02/12 06:35:30;;;;;;;81.47;41.10;;;7.00;99.90;;;;;;5055749;28;20135;-78
2024/02/12 06:37:58;;;;;;;77.70;40.25;;;7.00;99.90;;;;;;5058279;28;20541;-78
2024/02/12 06:40:24;;;;;;;84.43;41.90;;;7.00;99.90;;;;;;5055262;28;20039;-78
2024/02/12 06:42:49;;;;;;;72.25;40.70;;;7.00;99.90;;;;;;5045195;28;20036;-78
2024/02/12 06:45:18;;;;;;;83.82;41.10;;;7.00;99.90;;;;;;5049108;28;20101;-77
2024/02/12 06:47:44;;;;;;;80.57;42.00;;;7.10;99.90;;;;;;5045281;28;20622;-77
2024/02/12 06:50:10;;;;;;;88.85;42.45;;;7.10;99.90;;;;;;5063137;28;20093;-78
2024/02/12 06:52:39;;;;;;;84.72;40.58;;;7.00;99.90;;;;;;5054475;28;21265;-77
2024/02/12 06:55:10;;;;;;;80.80;41.95;;;7.10;99.90;;;;;;5063460;28;20080;-77
2024/02/12 06:57:39;;;;;;;87.25;41.83;;;7.10;99.90;;;;;;5076247;28;20052;-77
2024/02/12 07:00:05;;;;;;;83.72;42.20;;;7.00;99.90;;;;;;5058843;28;20036;-77
2024/02/12 07:02:35;;;;;;;83.57;41.50;;;7.10;99.90;;;;;;5054201;28;20532;-78
2024/02/12 07:05:12;;;;;;;79.65;41.13;;;7.00;99.90;;;;;;5053984;28;20601;-78
2024/02/12 07:07:39;;;;;;;87.57;41.00;;;7.10;99.90;;;;;;5044322;28;20048;-79
2024/02/12 07:10:06;;;;;;;85.03;41.15;;;7.00;99.90;;;;;;5049189;28;20093;-78
2024/02/12 07:12:32;;;;;;;75.43;39.00;;;7.00;99.90;;;;;;5040555;28;20543;-78
2024/02/12 07:14:59;;;;;;;84.00;40.33;;;7.00;99.90;;;;;;5044716;28;20048;-78
2024/02/12 07:17:25;;;;;;;88.72;40.58;;;7.10;99.90;;;;;;5046043;28;20044;-77
2024/02/12 07:19:50;;;;;;;82.65;40.28;;;7.00;99.90;;;;;;5055822;28;20381;-77
2024/02/12 07:22:20;;;;;;;79.28;40.97;;;7.10;99.90;;;;;;5040825;28;20051;-77
2024/02/12 07:24:49;;;;;;;70.57;38.58;;;7.10;99.90;;;;;;5043040;28;20045;-77
2024/02/12 07:27:24;;;;;;;76.90;39.28;;;7.10;99.90;;;;;;5034433;28;20051;-77
2024/02/12 07:29:50;;;;;;;71.53;38.17;;;7.10;99.90;;;;;;5066287;28;20511;-78
2024/02/12 07:32:15;;;;;;;78.25;40.20;;;7.10;99.90;;;;;;5062810;28;20037;-78
2024/02/12 07:34:41;;;;;;;72.15;39.15;;;7.00;99.90;;;;;;5046481;28;20040;-78
2024/02/12 07:37:08;;;;;;;79.90;39.50;;;7.00;99.90;;;;;;5042252;28;20059;-78
2024/02/12 07:39:34;;;;;;;71.07;39.13;;;7.00;99.90;;;;;;5050890;28;20051;-78
2024/02/12 07:42:04;;;;;;;73.78;39.40;;;7.00;99.90;;;;;;5044153;28;20085;-78
2024/02/12 07:44:30;;;;;;;75.10;38.05;;;7.00;99.90;;;;;;5056575;28;20400;-77
2024/02/12 07:46:57;;;;;;;77.82;39.13;;;7.00;99.90;;;;;;5058067;28;20035;-77
2024/02/12 07:49:23;;;;;;;69.78;39.55;;;7.00;99.90;;;;;;5046355;28;20385;-77
2024/02/12 07:51:50;;;;;;;72.57;39.58;;;7.00;99.90;;;;;;5059727;28;20095;-79
2024/02/12 07:54:19;;;;;;;78.18;39.50;;;7.00;99.90;;;;;;5060907;28;20040;-77
2024/02/12 07:56:46;;;;;;;71.63;38.13;;;7.00;99.90;;;;;;5047302;28;20191;-77
2024/02/12 07:59:12;;;;;;;80.40;40.17;;;7.00;99.90;;;;;;5046095;28;20097;-77
2024/02/12 08:01:38;;;;;;;82.72;41.25;;;7.00;99.90;;;;;;5064333;28;20036;-77
2024/02/12 08:04:04;;;;;;;72.03;37.72;;;7.00;99.90;;;;;;5049275;28;20035;-76
2024/02/12 08:06:30;;;;;;;72.57;38.10;;;7.00;99.90;;;;;;5060376;28;20044;-76
2024/02/12 08:08:56;;;;;;;71.32;39.05;;;7.10;99.90;;;;;;5041723;28;20159;-77
2024/02/12 08:11:22;;;;;;;71.75;38.15;;;7.10;99.90;;;;;;5065672;28;20131;-77
2024/02/12 08:13:50;;;;;;;70.75;37.47;;;7.10;99.90;;;;;;5044077;28;20065;-77
2024/02/12 08:16:16;;;;;;;71.45;39.20;;;7.10;99.90;;;;;;5054767;28;20116;-77
2024/02/12 08:18:41;;;;;;;68.82;38.60;;;7.20;99.90;;;;;;5036777;28;20131;-77
2024/02/12 08:21:07;;;;;;;69.93;38.95;;;7.20;99.90;;;;;;5050524;28;20450;-77
2024/02/12 08:23:33;;;;;;;66.72;38.03;;;7.20;99.90;;;;;;5041525;28;20043;-76
2024/02/12 08:25:59;;;;;;;64.13;37.22;;;7.20;99.90;;;;;;5055488;28;20052;-77
2024/02/12 08:28:25;;;;;;;65.38;37.70;;;7.30;99.90;;;;;;5054754;28;20431;-78
2024/02/12 08:30:51;;;;;;;59.42;37.22;;;7.30;99.90;;;;;;5056065;28;20707;-77
2024/02/12 08:33:17;;;;;;;62.65;35.95;;;7.30;99.90;;;;;;5054932;28;20041;-77
2024/02/12 08:35:42;;;;;;;61.65;36.28;;;7.40;99.90;;;;;;5052027;28;20652;-76
2024/02/12 08:38:09;;;;;;;60.95;37.70;;;7.50;99.90;;;;;;5044606;28;20047;-77
2024/02/12 08:40:36;;;;;;;56.33;36.58;;;7.60;99.90;;;;;;5042128;28;20098;-77
2024/02/12 08:43:05;;;;;;;57.70;34.45;;;7.70;99.90;;;;;;5041241;28;20040;-77
2024/02/12 08:45:32;;;;;;;50.63;33.92;;;7.70;99.90;;;;;;5042977;28;20048;-78
2024/02/12 08:47:58;;;;;;;50.90;32.55;;;7.80;99.90;;;;;;5056615;28;20056;-77
2024/02/12 08:50:24;;;;;;;53.13;32.78;;;7.90;99.90;;;;;;5063369;28;20234;-77
2024/02/12 08:52:53;;;;;;;48.65;30.35;;;7.90;99.90;;;;;;5059701;28;20059;-77
2024/02/12 08:55:19;;;;;;;48.07;30.80;;;7.90;99.90;;;;;;5061063;28;20047;-78
2024/02/12 08:57:45;;;;;;;43.40;28.73;;;7.90;99.90;;;;;;5069412;28;20052;-78
2024/02/12 09:00:13;;;;;;;46.45;30.10;;;8.00;99.90;;;;;;5046004;28;20044;-77
2024/02/12 09:02:39;;;;;;;41.78;28.48;;;8.00;99.90;;;;;;5049680;28;20136;-77
2024/02/12 09:05:11;;;;;;;45.88;30.35;;;8.00;99.90;;;;;;5053580;28;20083;-77
2024/02/12 09:07:38;;;;;;;45.95;30.10;;;8.00;99.90;;;;;;5062970;28;20052;-78
2024/02/12 09:10:11;;;;;;;42.47;28.77;;;8.00;99.90;;;;;;5063271;28;20123;-78
2024/02/12 09:12:38;;;;;;;45.03;28.95;;;8.10;99.90;;;;;;5046475;28;20052;-77
2024/02/12 09:15:08;;;;;;;49.42;29.88;;;8.10;99.90;;;;;;5060794;28;20518;-77
2024/02/12 09:17:37;;;;;;;42.97;29.30;;;8.10;99.90;;;;;;5060278;28;20408;-78
2024/02/12 09:20:04;;;;;;;41.78;27.77;;;8.10;99.90;;;;;;5061236;28;20047;-77
2024/02/12 09:22:33;;;;;;;42.35;28.45;;;8.10;99.90;;;;;;5065498;28;20035;-77
2024/02/12 09:25:00;;;;;;;45.45;29.80;;;8.00;99.90;;;;;;5057995;28;20075;-77
2024/02/12 09:27:28;;;;;;;53.75;30.30;;;8.00;99.90;;;;;;5049992;28;20047;-77
2024/02/12 09:29:55;;;;;;;43.25;27.02;;;8.00;99.90;;;;;;5063819;28;20064;-77
2024/02/12 09:32:21;;;;;;;39.05;26.75;;;8.00;99.90;;;;;;5050689;28;20039;-77
2024/02/12 09:34:46;;;;;;;46.75;29.52;;;7.90;99.90;;;;;;5063893;28;20434;-77
2024/02/12 09:37:12;;;;;;;39.00;26.52;;;8.00;99.90;;;;;;5052620;28;20065;-77
2024/02/12 09:39:38;;;;;;;36.75;25.90;;;8.00;99.90;;;;;;5066425;28;20132;-77
2024/02/12 09:42:07;;;;;;;39.65;26.38;;;8.00;99.90;;;;;;5063548;28;20048;-77
2024/02/12 09:44:34;;;;;;;35.72;24.52;;;8.10;99.90;;;;;;5053615;28;20054;-77
2024/02/12 09:47:06;;;;;;;35.63;23.63;;;8.20;99.90;;;;;;5072574;28;20518;-77
2024/02/12 09:49:35;;;;;;;30.23;22.98;;;8.20;99.90;;;;;;5054431;28;20056;-77
2024/02/12 09:52:04;;;;;;;33.42;21.20;;;8.20;99.90;;;;;;5048521;28;20555;-77
2024/02/12 09:54:36;;;;;;;29.33;20.30;;;8.20;99.90;;;;;;5042941;28;20111;-75
2024/02/12 09:57:05;;;;;;;27.60;18.80;;;8.20;99.90;;;;;;5043419;28;20057;-76
2024/02/12 09:59:32;;;;;;;27.60;20.10;;;8.20;99.90;;;;;;5058730;28;20059;-76
2024/02/12 10:01:58;;;;;;;34.15;20.92;;;8.20;99.90;;;;;;5042338;28;20136;-76
2024/02/12 10:04:25;;;;;;;25.75;18.83;;;8.20;99.90;;;;;;5058125;28;20123;-77
2024/02/12 10:07:02;;;;;;;31.25;20.63;;;8.20;99.90;;;;;;5043881;28;20049;-77
2024/02/12 10:09:28;;;;;;;27.48;19.10;;;8.30;99.90;;;;;;5047088;28;20044;-77
2024/02/12 10:11:54;;;;;;;25.95;19.77;;;8.40;99.90;;;;;;5063734;28;20036;-77
2024/02/12 10:14:36;;;;;;;27.58;18.98;;;8.40;99.90;;;;;;5053821;28;20047;-77
2024/02/12 10:17:02;;;;;;;27.88;19.38;;;8.50;99.90;;;;;;5067238;28;20192;-77
2024/02/12 10:19:33;;;;;;;23.92;18.13;;;8.50;99.90;;;;;;5064223;28;20049;-77
2024/02/12 10:21:59;;;;;;;25.92;18.98;;;8.50;99.90;;;;;;5042310;28;20544;-77
2024/02/12 10:24:27;;;;;;;23.75;17.75;;;8.60;99.90;;;;;;5056607;28;20048;-77
2024/02/12 10:26:53;;;;;;;25.88;19.30;;;8.60;99.90;;;;;;5042861;28;20043;-77
2024/02/12 10:29:19;;;;;;;27.25;19.15;;;8.60;99.90;;;;;;5061680;28;20405;-77
2024/02/12 10:31:46;;;;;;;26.23;18.15;;;8.70;99.90;;;;;;5062001;28;20051;-77
2024/02/12 10:34:14;;;;;;;23.80;17.50;;;8.70;99.90;;;;;;5060088;28;20066;-77
2024/02/12 10:36:47;;;;;;;22.63;17.85;;;8.70;99.90;;;;;;5046509;28;20056;-77
2024/02/12 10:39:18;;;;;;;28.08;18.08;;;8.70;99.90;;;;;;5049410;28;20127;-77
2024/02/12 10:41:50;;;;;;;28.45;18.55;;;8.70;99.90;;;;;;5063851;28;20040;-77
2024/02/12 10:44:19;;;;;;;27.05;17.23;;;8.70;99.90;;;;;;5064685;28;20131;-77
2024/02/12 10:46:49;;;;;;;24.27;17.05;;;8.70;99.90;;;;;;5064970;28;20155;-77
2024/02/12 10:49:17;;;;;;;25.92;17.48;;;8.70;99.90;;;;;;5062367;28;20044;-77
2024/02/12 10:51:45;;;;;;;23.55;16.33;;;8.80;99.90;;;;;;5055109;28;20044;-77
2024/02/12 10:54:11;;;;;;;21.88;15.40;;;8.80;99.90;;;;;;5038415;28;20044;-77
2024/02/12 10:56:38;;;;;;;21.95;15.25;;;8.80;99.90;;;;;;5039313;28;20122;-78
2024/02/12 10:59:04;;;;;;;21.48;13.75;;;8.80;99.90;;;;;;5037110;28;20396;-78
2024/02/12 11:01:32;;;;;;;22.75;14.55;;;8.80;99.90;;;;;;5057007;28;20718;-78
2024/02/12 11:04:00;;;;;;;21.75;14.25;;;8.80;99.90;;;;;;5038339;28;20053;-77
2024/02/12 11:06:27;;;;;;;20.92;13.52;;;8.90;99.90;;;;;;5055051;28;20109;-78
2024/02/12 11:08:54;;;;;;;17.55;13.07;;;8.90;99.90;;;;;;5037120;28;20094;-78
2024/02/12 11:11:25;;;;;;;18.15;13.07;;;8.90;99.90;;;;;;5050182;28;20391;-77
2024/02/12 11:14:13;;;;;;;19.02;13.00;;;8.90;99.90;;;;;;5045541;28;20045;-77
2024/02/12 11:16:40;;;;;;;17.33;12.05;;;9.00;99.90;;;;;;5040034;28;20052;-77
2024/02/12 11:19:21;;;;;;;18.17;12.55;;;9.00;99.90;;;;;;5053365;28;20040;-77
2024/02/12 11:21:58;;;;;;;18.27;11.65;;;9.00;99.90;;;;;;5048855;28;20040;-77
2024/02/12 11:24:23;;;;;;;14.48;10.95;;;9.00;99.90;;;;;;5048490;28;20470;-77
2024/02/12 11:26:51;;;;;;;17.52;11.65;;;9.10;99.90;;;;;;5034581;28;20060;-77
2024/02/12 11:29:17;;;;;;;18.42;10.70;;;9.10;99.90;;;;;;5050511;28;20500;-77
2024/02/12 11:31:44;;;;;;;12.98;8.90;;;9.10;99.90;;;;;;5055033;28;20044;-77
2024/02/12 11:34:20;;;;;;;16.83;8.82;;;9.00;99.90;;;;;;5059713;28;20524;-77
2024/02/12 11:36:59;;;;;;;13.02;8.55;;;9.10;99.90;;;;;;5061684;28;20052;-77
2024/02/12 11:39:26;;;;;;;11.75;7.90;;;9.10;99.90;;;;;;5054465;28;20078;-77
2024/02/12 11:41:51;;;;;;;10.65;7.28;;;9.10;99.90;;;;;;5052686;28;20453;-77
2024/02/12 11:44:17;;;;;;;10.95;5.28;;;9.10;99.90;;;;;;5050023;28;20036;-76
2024/02/12 11:46:53;;;;;;;9.38;4.95;;;9.10;99.90;;;;;;5054901;28;20096;-76
2024/02/12 11:49:19;;;;;;;10.98;5.60;;;9.10;99.90;;;;;;5036841;28;20481;-76
2024/02/12 11:51:46;;;;;;;9.50;5.07;;;9.20;99.90;;;;;;5036843;28;20149;-76
2024/02/12 11:54:13;;;;;;;9.50;5.72;;;9.20;99.90;;;;;;5037352;28;20052;-76
2024/02/12 11:56:40;;;;;;;9.60;5.97;;;9.20;99.90;;;;;;5047712;28;21167;-76
2024/02/12 11:59:06;;;;;;;10.90;6.28;;;9.20;99.90;;;;;;5035710;28;20102;-76
2024/02/12 12:01:33;;;;;;;13.40;6.60;;;9.30;99.90;;;;;;5050226;28;20129;-76
2024/02/12 12:04:01;;;;;;;11.65;6.10;;;9.30;99.90;;;;;;5035952;28;20061;-76
2024/02/12 12:06:34;;;;;;;11.65;6.32;;;9.30;99.90;;;;;;5051326;28;20064;-76
2024/02/12 12:09:02;;;;;;;9.40;5.55;;;9.30;99.90;;;;;;5036654;28;20127;-77
2024/02/12 12:11:28;;;;;;;13.02;5.45;;;9.30;99.90;;;;;;5052026;28;20522;-77
2024/02/12 12:14:00;;;;;;;10.40;5.00;;;9.30;99.90;;;;;;5041553;28;20036;-76
2024/02/12 12:16:27;;;;;;;13.02;5.88;;;9.40;99.90;;;;;;5046201;28;20044;-76
2024/02/12 12:18:53;;;;;;;11.82;5.47;;;9.30;99.90;;;;;;5035148;28;20048;-76
2024/02/12 12:21:23;;;;;;;9.63;5.13;;;9.40;99.90;;;;;;5036431;28;20504;-76
2024/02/12 12:23:51;;;;;;;12.30;6.15;;;9.40;99.90;;;;;;5046118;28;20052;-76
2024/02/12 12:26:17;;;;;;;10.73;5.65;;;9.40;99.90;;;;;;5036502;28;20052;-76
2024/02/12 12:28:44;;;;;;;13.02;5.63;;;9.50;99.90;;;;;;5037435;28;20056;-76
2024/02/12 12:31:11;;;;;;;13.70;5.57;;;9.50;99.90;;;;;;5031816;28;20043;-76
2024/02/12 12:33:38;;;;;;;11.55;5.25;;;9.50;99.90;;;;;;5035768;28;20044;-76
2024/02/12 12:36:04;;;;;;;9.43;4.97;;;9.50;99.90;;;;;;5033693;28;20047;-77
2024/02/12 12:38:32;;;;;;;12.98;5.65;;;9.60;99.90;;;;;;5052625;28;20048;-76
2024/02/12 12:40:57;;;;;;;10.00;5.00;;;9.60;99.90;;;;;;5045356;28;20405;-76
2024/02/12 12:43:23;;;;;;;12.07;5.18;;;9.60;99.90;;;;;;5042648;28;20040;-76
2024/02/12 12:45:52;;;;;;;13.13;4.35;;;9.60;99.90;;;;;;5059883;28;20048;-77
2024/02/12 12:48:18;;;;;;;11.10;4.40;;;9.60;99.90;;;;;;5041056;28;20038;-77
2024/02/12 12:50:44;;;;;;;12.55;4.43;;;9.70;99.90;;;;;;5056830;28;20040;-76
2024/02/12 12:53:10;;;;;;;9.73;3.97;;;9.70;99.90;;;;;;5043211;28;20403;-76
2024/02/12 12:55:36;;;;;;;7.32;3.95;;;9.80;99.90;;;;;;5038467;28;20048;-77